Cedar Ridge, California
Current Conditions -  °F | °C
As of 6:40 AM on Friday 28 Nov 2014 (Local Time) from KGOO Reporting Station
Clear Clear  
Wind Chill: 54°   Ceiling: Unl
Heat Index: 54°   Visibility: 10mi
Dew Point: 25°   Wind: 7mph
Humidity: 33%   Direction: 150°SSE
Pressure: 30.04"   Gusts: NA
Location:  39.19°N, 121.02°W
Report Text: KGOO 281440Z AUTO 15006KT 10SM CLR 12/M04 A3004 RMK AO1
Loading
Personal Weather Stations






























Interactive Weather Map New forecast layout! Learn more

10-Day Weather Forecast

Advertisements
Track Severe Weather on mobile